Time;durP1;ratioP1;P1;durP2;ratioP2;P2;SDS_P1;SDS_P2;PMS_P1;PMS_P2;Temp;Humidity;BMP_temperature;BMP_pressure;BME280_temperature;BME280_humidity;BME280_pressure;Samples;Min_cycle;Max_cycle;Signal;HPM_P1;HPM_P2
2022/10/18 00:01:21;;;;;;;9.00;4.10;;;;;;;17.48;87.58;100422.41;105906;1291;57978;-72
2022/10/18 00:04:07;;;;;;;8.60;4.00;;;;;;;17.47;87.65;100426.08;105973;1291;59237;-70
2022/10/18 00:06:54;;;;;;;8.90;3.70;;;;;;;17.45;87.96;100429.40;105944;1291;72337;-71
2022/10/18 00:09:42;;;;;;;9.10;3.70;;;;;;;17.40;87.98;100434.91;105940;1291;68787;-71
2022/10/18 00:12:32;;;;;;;8.10;3.10;;;;;;;17.36;88.14;100439.41;105950;1291;73708;-70
2022/10/18 00:15:18;;;;;;;6.70;3.10;;;;;;;17.32;88.33;100439.85;105867;1292;59532;-70
2022/10/18 00:18:05;;;;;;;6.90;3.10;;;;;;;17.27;88.50;100436.89;105935;1289;61398;-71
2022/10/18 00:21:01;;;;;;;7.30;2.90;;;;;;;17.22;89.02;100440.06;105791;1289;71298;-70
2022/10/18 00:23:49;;;;;;;7.00;2.80;;;;;;;17.19;89.05;100438.27;105960;1283;66799;-71
2022/10/18 00:26:36;;;;;;;7.00;2.50;;;;;;;17.16;89.34;100440.54;105937;1291;72859;-71
2022/10/18 00:29:22;;;;;;;6.70;2.50;;;;;;;17.13;89.17;100436.65;105925;1291;60621;-72
2022/10/18 00:32:10;;;;;;;6.00;2.60;;;;;;;17.09;89.28;100437.48;105940;1284;60364;-72
2022/10/18 00:34:59;;;;;;;8.70;2.60;;;;;;;17.04;89.05;100442.21;105946;1290;72634;-72
2022/10/18 00:37:45;;;;;;;6.60;2.40;;;;;;;16.99;89.20;100444.31;105949;1284;67705;-71
2022/10/18 00:40:34;;;;;;;7.90;2.70;;;;;;;16.94;89.35;100446.67;105937;1290;72095;-72
2022/10/18 00:43:20;;;;;;;6.20;2.10;;;;;;;16.88;89.34;100441.95;105931;1298;60634;-72
2022/10/18 00:46:07;;;;;;;6.50;2.40;;;;;;;16.83;89.53;100430.27;105929;1291;61210;-71
2022/10/18 00:48:56;;;;;;;7.10;2.30;;;;;;;16.78;89.57;100432.55;105946;1291;73241;-70
2022/10/18 00:51:52;;;;;;;6.30;2.50;;;;;;;16.75;89.55;100429.46;105960;1291;68703;-71
2022/10/18 00:54:42;;;;;;;6.30;2.40;;;;;;;16.72;89.51;100428.15;105921;1291;72888;-72
2022/10/18 00:57:29;;;;;;;6.00;2.10;;;;;;;16.67;89.76;100437.88;105886;1294;59444;-71
2022/10/18 01:00:16;;;;;;;6.90;1.90;;;;;;;16.62;89.77;100443.39;105948;1291;60267;-71
2022/10/18 01:03:02;;;;;;;6.30;2.20;;;;;;;16.56;89.97;100432.91;105893;1298;72308;-71
2022/10/18 01:05:48;;;;;;;6.00;1.60;;;;;;;16.51;90.31;100428.88;105944;1277;68618;-71
2022/10/18 01:09:28;;;;;;;5.90;1.80;;;;;;;16.47;90.31;100435.17;105934;1291;72469;-71
2022/10/18 01:12:37;;;;;;;6.50;2.40;;;;;;;16.45;90.52;100429.71;105949;1291;60516;-71
2022/10/18 01:15:33;;;;;;;6.30;1.90;;;;;;;16.42;90.62;100430.38;105938;1284;61397;-72
2022/10/18 01:18:52;;;;;;;6.90;2.00;;;;;;;16.39;90.50;100418.59;105810;1291;73243;-70
2022/10/18 01:22:18;;;;;;;5.50;1.80;;;;;;;16.37;90.77;100422.92;105957;1283;67801;-70
2022/10/18 01:26:19;;;;;;;8.70;1.90;;;;;;;16.34;91.28;100431.99;105895;1291;72573;-71
2022/10/18 01:29:46;;;;;;;6.10;1.80;;;;;;;16.33;91.18;100440.84;105921;1290;59797;-72
2022/10/18 01:32:43;;;;;;;6.50;1.90;;;;;;;16.31;91.64;100449.80;105951;1289;60105;-71
2022/10/18 01:35:37;;;;;;;7.20;2.00;;;;;;;16.28;92.39;100452.38;105906;1283;72540;-71
2022/10/18 01:38:25;;;;;;;5.60;1.80;;;;;;;16.27;92.32;100455.42;105904;1291;67592;-70
2022/10/18 01:41:13;;;;;;;6.80;1.80;;;;;;;16.25;92.37;100445.16;105899;1292;72450;-71
2022/10/18 01:44:05;;;;;;;7.00;2.10;;;;;;;16.23;92.50;100447.69;105804;1294;58053;-72
2022/10/18 01:46:55;;;;;;;7.60;2.10;;;;;;;16.21;92.79;100448.66;105787;1290;61307;-72
2022/10/18 01:49:41;;;;;;;6.50;2.50;;;;;;;16.16;92.75;100440.45;105908;1291;73278;-71
2022/10/18 01:52:28;;;;;;;6.50;2.10;;;;;;;16.11;92.29;100431.29;105932;1291;67725;-72
2022/10/18 01:55:15;;;;;;;5.50;1.80;;;;;;;16.07;91.93;100427.42;105933;1298;73753;-72
2022/10/18 01:58:37;;;;;;;5.60;2.00;;;;;;;16.04;91.71;100427.92;105872;1294;59427;-71
2022/10/18 02:01:44;;;;;;;6.30;1.70;;;;;;;15.98;91.58;100423.08;105812;1291;61382;-71
2022/10/18 02:04:47;;;;;;;5.70;1.80;;;;;;;15.91;91.56;100435.72;105941;1291;71095;-70
2022/10/18 02:07:52;;;;;;;6.00;1.80;;;;;;;15.85;91.40;100441.27;105941;1291;68687;-72
2022/10/18 02:11:11;;;;;;;6.60;1.40;;;;;;;15.80;91.45;100438.64;105887;1290;73452;-71
2022/10/18 02:14:06;;;;;;;5.90;1.70;;;;;;;15.75;91.18;100448.97;105929;1291;59633;-71
2022/10/18 02:17:00;;;;;;;8.30;2.00;;;;;;;15.72;91.43;100438.66;105896;1280;60382;-71
2022/10/18 02:19:52;;;;;;;5.70;2.00;;;;;;;15.69;91.56;100442.93;105903;1284;71848;-71
2022/10/18 02:22:44;;;;;;;5.50;2.10;;;;;;;15.65;91.51;100440.59;105936;1276;67565;-71
2022/10/18 02:25:32;;;;;;;5.80;1.80;;;;;;;15.63;91.61;100437.73;105938;1290;73605;-71
2022/10/18 02:28:20;;;;;;;6.20;1.90;;;;;;;15.60;91.68;100437.84;105935;1298;60142;-71
2022/10/18 02:31:43;;;;;;;7.70;2.60;;;;;;;15.59;91.78;100445.83;105937;1290;61420;-71
2022/10/18 02:34:37;;;;;;;6.00;1.80;;;;;;;15.56;91.65;100449.48;105931;1291;73327;-71
2022/10/18 02:37:30;;;;;;;5.50;1.60;;;;;;;15.53;91.49;100455.51;105883;1294;67800;-71
2022/10/18 02:40:17;;;;;;;6.70;1.90;;;;;;;15.48;91.38;100460.54;105898;1291;70159;-71
2022/10/18 02:43:05;;;;;;;7.90;1.90;;;;;;;15.46;91.45;100465.43;105891;1296;60482;-71
2022/10/18 02:45:52;;;;;;;8.30;1.80;;;;;;;15.44;91.63;100468.11;105946;1291;61395;-71
2022/10/18 02:48:38;;;;;;;6.30;2.10;;;;;;;15.43;91.71;100467.81;105779;1291;73254;-70
2022/10/18 02:51:25;;;;;;;6.50;2.10;;;;;;;15.41;91.65;100458.54;105938;1291;67628;-71
2022/10/18 02:54:11;;;;;;;5.80;2.10;;;;;;;15.40;91.64;100450.23;105931;1291;72618;-71
2022/10/18 02:56:58;;;;;;;7.20;2.00;;;;;;;15.38;91.63;100454.16;105925;1291;59398;-71
2022/10/18 02:59:44;;;;;;;6.40;2.00;;;;;;;15.33;91.81;100449.39;105968;1291;60581;-72
2022/10/18 03:02:30;;;;;;;6.70;2.10;;;;;;;15.30;91.91;100447.52;105955;1290;72098;-71
2022/10/18 03:05:17;;;;;;;5.60;1.70;;;;;;;15.29;91.93;100463.55;105937;1291;67927;-70
2022/10/18 03:08:03;;;;;;;6.40;1.80;;;;;;;15.28;91.93;100475.96;105964;1284;73502;-74
2022/10/18 03:10:50;;;;;;;7.90;2.00;;;;;;;15.27;91.94;100474.98;105831;1286;57415;-72
2022/10/18 03:13:36;;;;;;;8.80;2.00;;;;;;;15.27;91.93;100468.52;105961;1291;60405;-71
2022/10/18 03:16:24;;;;;;;6.80;2.10;;;;;;;15.28;91.70;100462.77;105964;1291;72231;-72
2022/10/18 03:19:11;;;;;;;8.10;2.40;;;;;;;15.28;91.68;100462.19;105807;1292;68862;-70
2022/10/18 03:21:57;;;;;;;6.60;2.00;;;;;;;15.27;91.68;100463.59;105953;1291;72495;-70
2022/10/18 03:24:46;;;;;;;8.50;2.10;;;;;;;15.25;91.62;100461.21;105926;1289;57958;-70
2022/10/18 03:27:33;;;;;;;7.00;2.10;;;;;;;15.24;91.81;100465.75;105918;1290;60378;-72
2022/10/18 03:30:19;;;;;;;7.60;2.30;;;;;;;15.24;91.65;100473.09;105840;1292;72221;-71
2022/10/18 03:33:06;;;;;;;6.00;1.90;;;;;;;15.25;91.72;100483.92;105987;1289;67883;-72
2022/10/18 03:35:52;;;;;;;8.60;2.10;;;;;;;15.26;91.51;100491.52;105836;1291;72355;-75
2022/10/18 03:38:38;;;;;;;6.70;2.10;;;;;;;15.25;91.28;100489.64;105797;1291;59442;-72
2022/10/18 03:41:25;;;;;;;6.80;2.00;;;;;;;15.22;91.41;100495.61;105987;1287;60143;-75
2022/10/18 03:44:11;;;;;;;7.90;2.40;;;;;;;15.21;91.50;100485.96;105800;1294;73267;-73
2022/10/18 03:46:58;;;;;;;9.10;2.30;;;;;;;15.19;91.49;100490.02;105713;1284;66349;-76
2022/10/18 03:49:48;;;;;;;7.00;2.10;;;;;;;15.18;91.70;100490.49;105720;1283;72468;-73
2022/10/18 03:52:40;;;;;;;7.10;2.10;;;;;;;15.15;91.72;100487.32;105970;1291;59400;-74
2022/10/18 03:55:27;;;;;;;8.10;2.10;;;;;;;15.14;91.67;100495.83;105727;1300;60305;-72
2022/10/18 03:58:13;;;;;;;7.30;2.00;;;;;;;15.10;91.84;100492.96;105940;1283;73400;-72
2022/10/18 04:00:59;;;;;;;7.00;2.00;;;;;;;15.09;91.78;100505.05;105827;1291;67824;-72
2022/10/18 04:03:45;;;;;;;14.20;3.00;;;;;;;15.08;91.74;100513.33;105947;1284;73003;-72
2022/10/18 04:06:32;;;;;;;6.60;1.90;;;;;;;15.07;91.91;100510.59;105953;1291;59641;-72
2022/10/18 04:09:18;;;;;;;8.30;2.00;;;;;;;15.05;91.87;100508.23;105957;1291;60200;-71
2022/10/18 04:12:04;;;;;;;7.50;2.00;;;;;;;15.05;91.89;100508.10;105815;1277;73273;-72
2022/10/18 04:14:51;;;;;;;9.10;2.30;;;;;;;15.04;91.90;100500.46;105975;1291;67746;-70
2022/10/18 04:17:37;;;;;;;9.60;2.30;;;;;;;15.04;91.85;100495.46;105931;1291;73760;-70
2022/10/18 04:20:24;;;;;;;8.90;2.50;;;;;;;15.02;91.73;100492.77;105925;1291;59479;-71
2022/10/18 04:23:11;;;;;;;7.50;1.90;;;;;;;15.01;91.66;100492.02;105935;1290;59300;-71
2022/10/18 04:25:57;;;;;;;8.40;2.00;;;;;;;14.97;91.74;100495.70;105970;1291;72114;-71
2022/10/18 04:28:43;;;;;;;9.20;2.10;;;;;;;14.93;91.70;100503.45;105956;1290;67801;-74
2022/10/18 04:31:30;;;;;;;6.80;2.10;;;;;;;14.89;92.17;100499.09;105913;1290;73721;-71
2022/10/18 04:34:16;;;;;;;8.10;2.70;;;;;;;14.87;92.17;100506.11;105912;1284;59331;-73
2022/10/18 04:37:03;;;;;;;10.80;2.60;;;;;;;14.84;92.18;100507.23;105920;1291;61259;-72
2022/10/18 04:39:49;;;;;;;8.80;2.40;;;;;;;14.83;92.45;100517.30;105943;1291;73071;-72
2022/10/18 04:42:39;;;;;;;8.30;2.20;;;;;;;14.83;92.68;100525.90;105955;1291;67543;-72
2022/10/18 04:45:26;;;;;;;7.30;2.00;;;;;;;14.84;92.44;100527.11;105916;1283;73663;-72
2022/10/18 04:48:14;;;;;;;7.70;2.00;;;;;;;14.84;92.44;100517.58;105919;1275;57872;-72
2022/10/18 04:51:00;;;;;;;9.80;2.70;;;;;;;14.84;92.31;100517.11;105927;1291;61476;-72
2022/10/18 04:53:47;;;;;;;8.30;2.40;;;;;;;14.83;92.21;100518.59;105928;1291;72038;-72
2022/10/18 04:56:33;;;;;;;8.00;2.30;;;;;;;14.85;92.46;100520.64;105932;1284;67741;-71
2022/10/18 04:59:20;;;;;;;8.10;2.10;;;;;;;14.85;92.46;100522.36;105807;1293;73782;-72
2022/10/18 05:02:07;;;;;;;8.60;2.10;;;;;;;14.85;92.30;100518.63;105788;1291;59521;-72
2022/10/18 05:04:53;;;;;;;9.80;2.30;;;;;;;14.84;92.44;100522.63;105947;1291;59907;-73
2022/10/18 05:07:39;;;;;;;10.20;2.60;;;;;;;14.83;92.45;100522.13;105923;1291;72071;-72
2022/10/18 05:10:26;;;;;;;7.90;2.60;;;;;;;14.83;92.49;100524.52;105923;1291;67531;-73
2022/10/18 05:13:12;;;;;;;15.40;3.30;;;;;;;14.81;92.51;100524.29;105950;1291;72431;-71
2022/10/18 05:15:59;;;;;;;9.00;2.80;;;;;;;14.82;92.74;100522.80;105924;1291;59568;-72
2022/10/18 05:18:45;;;;;;;17.70;3.30;;;;;;;14.82;92.53;100522.29;105917;1291;60903;-72
2022/10/18 05:21:32;;;;;;;22.70;4.90;;;;;;;14.82;92.53;100526.89;105929;1291;73068;-72
2022/10/18 05:24:19;;;;;;;14.50;3.40;;;;;;;14.83;92.40;100540.73;105946;1291;67816;-71
2022/10/18 05:27:10;;;;;;;9.90;2.40;;;;;;;14.84;92.56;100546.07;105922;1283;71968;-72
2022/10/18 05:29:56;;;;;;;11.20;3.00;;;;;;;14.84;92.42;100552.07;105934;1283;60704;-71
2022/10/18 05:32:49;;;;;;;9.00;2.80;;;;;;;14.83;92.52;100542.73;105893;1291;61302;-73
2022/10/18 05:35:35;;;;;;;8.70;3.20;;;;;;;14.83;92.70;100538.25;105952;1283;71036;-72
2022/10/18 05:38:22;;;;;;;12.90;3.40;;;;;;;14.82;92.47;100535.98;105923;1291;67689;-72
2022/10/18 05:41:09;;;;;;;40.80;29.10;;;;;;;14.85;92.48;100534.90;105941;1284;72538;-76
2022/10/18 05:43:55;;;;;;;17.00;5.50;;;;;;;14.86;92.62;100535.34;105942;1284;57726;-77
2022/10/18 05:46:41;;;;;;;16.00;3.80;;;;;;;14.87;92.24;100532.91;105939;1277;61394;-77
2022/10/18 05:49:28;;;;;;;10.40;3.40;;;;;;;14.87;92.46;100539.37;105953;1283;72537;-76
2022/10/18 05:52:15;;;;;;;15.60;5.40;;;;;;;14.86;92.26;100545.13;105940;1290;68859;-77
2022/10/18 05:55:02;;;;;;;8.70;3.10;;;;;;;14.86;92.57;100547.80;105758;1287;73794;-76
2022/10/18 05:57:50;;;;;;;10.00;3.20;;;;;;;14.83;92.49;100557.69;105800;1285;59302;-77
2022/10/18 06:00:37;;;;;;;10.90;3.50;;;;;;;14.82;92.65;100564.20;105939;1285;61330;-77
2022/10/18 06:03:24;;;;;;;13.00;3.40;;;;;;;14.83;92.48;100564.02;105921;1290;71902;-76
2022/10/18 06:06:12;;;;;;;13.10;3.20;;;;;;;14.83;92.52;100561.64;105971;1284;68870;-77
2022/10/18 06:08:59;;;;;;;10.80;3.10;;;;;;;14.86;92.38;100559.29;105935;1285;73561;-77
2022/10/18 06:11:45;;;;;;;9.70;3.20;;;;;;;14.86;92.32;100555.14;105930;1285;59552;-77
2022/10/18 06:14:32;;;;;;;17.20;6.90;;;;;;;14.87;92.34;100557.20;105953;1291;60557;-76
2022/10/18 06:17:18;;;;;;;10.30;3.00;;;;;;;14.86;92.10;100552.43;105931;1283;73250;-77
2022/10/18 06:20:06;;;;;;;11.70;2.90;;;;;;;14.87;92.15;100543.77;105985;1280;67582;-76
2022/10/18 06:22:52;;;;;;;9.70;3.40;;;;;;;14.88;92.00;100545.46;105999;1290;72342;-76
2022/10/18 06:25:39;;;;;;;9.30;3.40;;;;;;;14.90;92.05;100546.75;105946;1282;59677;-77
2022/10/18 06:28:26;;;;;;;11.40;5.30;;;;;;;14.93;91.78;100552.36;105996;1291;60395;-77
2022/10/18 06:31:14;;;;;;;12.30;4.40;;;;;;;14.94;91.47;100555.99;105997;1283;71060;-76
2022/10/18 06:34:01;;;;;;;12.10;3.30;;;;;;;14.96;91.21;100555.33;106037;1289;67882;-76
2022/10/18 06:36:47;;;;;;;17.10;6.10;;;;;;;14.94;91.35;100556.89;106015;1283;71748;-77
2022/10/18 06:39:33;;;;;;;11.10;3.00;;;;;;;14.96;90.90;100561.90;106024;1291;58200;-77
2022/10/18 06:42:20;;;;;;;8.90;3.20;;;;;;;14.97;90.18;100564.70;106037;1289;61127;-76
2022/10/18 06:45:08;;;;;;;10.10;3.10;;;;;;;14.97;89.84;100567.05;106032;1287;73095;-76
2022/10/18 06:47:57;;;;;;;8.90;3.00;;;;;;;14.92;89.33;100560.12;105955;1284;67794;-76
2022/10/18 06:50:55;;;;;;;13.90;3.50;;;;;;;14.92;88.98;100566.95;105914;1286;72489;-77
2022/10/18 06:53:42;;;;;;;9.70;2.80;;;;;;;14.89;87.67;100571.11;106004;1297;60553;-76
2022/10/18 06:56:38;;;;;;;10.10;3.70;;;;;;;14.84;87.71;100578.02;106042;1289;60216;-76
2022/10/18 06:59:25;;;;;;;9.30;2.70;;;;;;;14.84;88.14;100589.42;106054;1281;72036;-76
2022/10/18 07:02:17;;;;;;;9.70;3.60;;;;;;;14.83;88.00;100586.28;106656;1281;68658;-76
2022/10/18 07:05:03;;;;;;;10.90;2.70;;;;;;;14.83;87.66;100586.15;106615;1281;74772;-76
2022/10/18 07:07:49;;;;;;;14.20;3.20;;;;;;;14.83;87.46;100582.92;106657;1275;59377;-77
2022/10/18 07:10:49;;;;;;;12.00;3.20;;;;;;;14.85;87.22;100583.48;106652;1274;61344;-77
2022/10/18 07:13:35;;;;;;;13.30;4.60;;;;;;;14.87;86.65;100579.64;106499;1281;73326;-77
2022/10/18 07:16:21;;;;;;;9.10;2.60;;;;;;;14.97;86.47;100579.91;106628;1282;68147;-75
2022/10/18 07:19:07;;;;;;;11.90;3.70;;;;;;;15.06;86.10;100580.34;106639;1281;73570;-75
2022/10/18 07:21:54;;;;;;;8.30;2.70;;;;;;;15.14;85.57;100583.41;106654;1281;58867;-76
2022/10/18 07:24:40;;;;;;;13.40;2.90;;;;;;;15.21;85.05;100584.39;106643;1281;61437;-78
2022/10/18 07:27:26;;;;;;;11.70;3.00;;;;;;;15.24;84.46;100589.27;106681;1281;72119;-75
2022/10/18 07:30:13;;;;;;;10.50;3.40;;;;;;;15.25;84.06;100586.17;106665;1281;66358;-77
2022/10/18 07:32:59;;;;;;;15.80;3.20;;;;;;;15.29;84.27;100586.87;106626;1274;72810;-75
2022/10/18 07:35:46;;;;;;;12.50;2.90;;;;;;;15.41;84.29;100589.77;106654;1281;60748;-76
2022/10/18 07:38:34;;;;;;;10.80;2.90;;;;;;;15.50;83.51;100600.94;106655;1281;61138;-77
2022/10/18 07:41:21;;;;;;;13.10;3.70;;;;;;;15.51;83.14;100604.22;106445;1274;71335;-77
2022/10/18 07:44:07;;;;;;;14.30;3.30;;;;;;;15.55;82.96;100601.17;106638;1281;68753;-76
2022/10/18 07:46:54;;;;;;;11.20;3.60;;;;;;;15.59;82.51;100603.70;106563;1276;72426;-77
2022/10/18 07:49:40;;;;;;;13.60;2.80;;;;;;;15.56;81.38;100601.12;106651;1281;59604;-77
2022/10/18 07:52:26;;;;;;;14.60;3.80;;;;;;;15.54;81.07;100605.22;106663;1281;61267;-77
2022/10/18 07:55:13;;;;;;;12.20;2.70;;;;;;;15.46;80.19;100605.09;106676;1280;73256;-78
2022/10/18 07:58:00;;;;;;;14.20;4.90;;;;;;;15.41;80.93;100605.27;106666;1281;67677;-76
2022/10/18 08:00:46;;;;;;;23.00;4.80;;;;;;;15.35;80.99;100607.30;106668;1273;70927;-76
2022/10/18 08:03:36;;;;;;;14.40;3.30;;;;;;;15.31;81.12;100599.44;106664;1289;60642;-77
2022/10/18 08:06:22;;;;;;;11.40;2.80;;;;;;;15.33;81.60;100599.55;106675;1281;58825;-77
2022/10/18 08:09:09;;;;;;;10.50;3.40;;;;;;;15.31;81.24;100597.23;106641;1282;71147;-76
2022/10/18 08:11:55;;;;;;;17.00;6.50;;;;;;;15.26;81.38;100594.65;106666;1281;68851;-75
2022/10/18 08:14:41;;;;;;;10.30;2.80;;;;;;;15.23;81.55;100600.42;106493;1275;71787;-72
2022/10/18 08:17:28;;;;;;;9.60;2.70;;;;;;;15.23;81.80;100596.59;106630;1282;58833;-72
2022/10/18 08:20:14;;;;;;;9.20;2.80;;;;;;;15.26;81.31;100595.75;106495;1277;59005;-73
2022/10/18 08:23:16;;;;;;;10.80;2.90;;;;;;;15.32;80.37;100586.81;106636;1281;73275;-73
2022/10/18 08:26:07;;;;;;;13.20;2.90;;;;;;;15.44;79.72;100581.65;106648;1274;68884;-72
2022/10/18 08:28:53;;;;;;;7.60;1.80;;;;;;;15.59;79.09;100572.02;106658;1287;73760;-73
2022/10/18 08:31:59;;;;;;;7.90;1.80;;;;;;;15.78;78.50;100573.23;106657;1281;57834;-72
2022/10/18 08:34:46;;;;;;;7.40;2.70;;;;;;;16.02;78.32;100575.84;106669;1281;59531;-73
2022/10/18 08:37:33;;;;;;;12.30;2.60;;;;;;;16.71;76.52;100571.73;106644;1281;72063;-73
2022/10/18 08:40:20;;;;;;;11.00;2.30;;;;;;;17.46;72.53;100577.39;106640;1274;67558;-73
2022/10/18 08:43:21;;;;;;;11.30;2.10;;;;;;;17.95;68.86;100572.20;106622;1274;72524;-73
2022/10/18 08:46:11;;;;;;;12.30;2.60;;;;;;;17.90;68.44;100573.22;106491;1281;57274;-73
2022/10/18 08:49:00;;;;;;;11.70;2.20;;;;;;;18.10;67.72;100571.08;106493;1282;60406;-73
2022/10/18 08:51:48;;;;;;;9.10;2.40;;;;;;;19.29;66.13;100563.60;106667;1281;73030;-72
2022/10/18 08:54:48;;;;;;;9.60;2.20;;;;;;;20.75;62.00;100561.64;106473;1278;68613;-72
2022/10/18 08:57:35;;;;;;;8.40;1.90;;;;;;;22.01;55.12;100563.29;106505;1284;73501;-72
2022/10/18 09:00:25;;;;;;;8.50;2.00;;;;;;;23.09;53.25;100564.46;106630;1281;57736;-73
2022/10/18 09:03:20;;;;;;;9.60;2.20;;;;;;;23.10;50.61;100571.69;106510;1280;60899;-72
2022/10/18 09:06:42;;;;;;;9.60;1.90;;;;;;;22.66;49.85;100570.94;106689;1281;73257;-72
2022/10/18 09:10:25;;;;;;;9.70;2.10;;;;;;;22.13;50.35;100564.62;106444;1281;66209;-72
2022/10/18 09:13:36;;;;;;;8.80;2.00;;;;;;;22.15;51.25;100570.36;106677;1281;72575;-73
2022/10/18 09:17:01;;;;;;;11.30;2.10;;;;;;;22.19;50.48;100568.88;106511;1275;58101;-73
2022/10/18 09:20:12;;;;;;;7.70;1.90;;;;;;;22.76;47.92;100562.75;106646;1281;61291;-73
2022/10/18 09:23:29;;;;;;;8.50;1.60;;;;;;;24.34;45.12;100561.20;106658;1281;72163;-74
2022/10/18 09:26:21;;;;;;;8.70;1.70;;;;;;;25.46;41.03;100557.39;106661;1282;67703;-74
2022/10/18 09:29:19;;;;;;;8.70;2.00;;;;;;;25.84;40.39;100557.13;106468;1290;73637;-73
2022/10/18 09:32:21;;;;;;;9.10;1.90;;;;;;;25.33;40.46;100555.30;106498;1286;56877;-73
2022/10/18 09:35:18;;;;;;;8.80;2.60;;;;;;;24.96;41.60;100553.34;106662;1282;61269;-73
2022/10/18 09:38:10;;;;;;;7.70;2.30;;;;;;;25.00;40.19;100553.02;106409;1289;73303;-73
2022/10/18 09:41:08;;;;;;;9.60;2.40;;;;;;;25.03;40.69;100555.01;106393;1281;69018;-74
2022/10/18 09:44:14;;;;;;;9.90;1.80;;;;;;;24.78;40.49;100552.61;106643;1273;73671;-74
2022/10/18 09:47:33;;;;;;;7.70;1.70;;;;;;;24.14;41.26;100556.73;106561;1280;58908;-74
2022/10/18 09:50:53;;;;;;;10.90;2.00;;;;;;;23.82;41.89;100560.05;106541;1278;61129;-73
2022/10/18 09:53:44;;;;;;;8.40;1.70;;;;;;;24.84;39.74;100546.88;106563;1274;72039;-73
2022/10/18 09:56:56;;;;;;;8.90;1.60;;;;;;;26.93;36.74;100543.95;106505;1289;67799;-73
2022/10/18 09:59:48;;;;;;;7.60;1.60;;;;;;;28.00;34.86;100551.02;106468;1282;72600;-73
2022/10/18 10:02:34;;;;;;;8.30;1.90;;;;;;;29.25;32.53;100541.27;106581;1274;57090;-72
2022/10/18 10:05:20;;;;;;;8.40;1.60;;;;;;;30.82;29.91;100531.92;106643;1287;60311;-73
2022/10/18 10:08:07;;;;;;;7.00;1.80;;;;;;;31.72;27.89;100521.91;106477;1281;71466;-73
2022/10/18 10:10:53;;;;;;;7.40;1.70;;;;;;;32.36;26.75;100517.91;106491;1281;67607;-74
2022/10/18 10:13:39;;;;;;;7.40;1.50;;;;;;;32.67;25.90;100514.32;106652;1280;73804;-72
2022/10/18 10:16:26;;;;;;;8.00;1.50;;;;;;;32.60;24.89;100525.42;106620;1279;58917;-73
2022/10/18 10:19:33;;;;;;;8.20;1.60;;;;;;;32.33;25.60;100515.67;106654;1287;60289;-73
2022/10/18 10:22:32;;;;;;;9.10;1.80;;;;;;;32.71;24.84;100502.32;106648;1281;73091;-73
2022/10/18 10:25:34;;;;;;;8.90;1.50;;;;;;;31.48;26.05;100497.59;106653;1281;67799;-74
2022/10/18 10:28:27;;;;;;;7.50;1.40;;;;;;;29.56;28.01;100500.98;106398;1289;84150;-74
2022/10/18 10:31:23;;;;;;;8.20;1.50;;;;;;;28.18;30.50;100499.08;106493;1278;57913;-72
2022/10/18 10:34:12;;;;;;;7.70;1.50;;;;;;;26.99;32.23;100498.66;106643;1282;60721;-74
2022/10/18 10:36:58;;;;;;;9.60;1.50;;;;;;;26.30;33.41;100506.27;106646;1281;72170;-73
2022/10/18 10:39:44;;;;;;;8.00;1.80;;;;;;;25.49;34.45;100511.33;106630;1288;67852;-73
2022/10/18 10:43:14;;;;;;;8.40;1.80;;;;;;;24.44;36.37;100507.58;106589;1281;72459;-73
2022/10/18 10:46:22;;;;;;;9.50;2.10;;;;;;;24.09;37.75;100508.92;106635;1288;57705;-74
2022/10/18 10:49:24;;;;;;;13.70;2.00;;;;;;;23.73;38.67;100513.45;106567;1284;61338;-73
2022/10/18 10:52:28;;;;;;;9.40;1.80;;;;;;;23.08;39.98;100516.88;106526;1286;73280;-73
2022/10/18 10:55:21;;;;;;;8.40;2.10;;;;;;;22.46;41.04;100517.59;106542;1283;67136;-75
2022/10/18 10:58:22;;;;;;;8.90;2.10;;;;;;;21.54;43.08;100516.89;106542;1282;71486;-77
2022/10/18 11:01:21;;;;;;;10.30;3.10;;;;;;;20.79;45.04;100513.11;106652;1281;57879;-75
2022/10/18 11:04:29;;;;;;;11.30;2.30;;;;;;;20.20;46.55;100514.17;106693;1280;57780;-74
2022/10/18 11:07:19;;;;;;;9.00;2.10;;;;;;;19.65;48.35;100519.30;106683;1278;72187;-75
2022/10/18 11:10:08;;;;;;;8.00;1.70;;;;;;;19.28;49.75;100518.45;106678;1281;69185;-75
2022/10/18 11:13:01;;;;;;;10.20;1.90;;;;;;;18.96;50.92;100513.15;106756;1281;71244;-75
2022/10/18 11:16:04;;;;;;;30.90;3.20;;;;;;;18.66;52.21;100507.61;106645;1273;57855;-72
2022/10/18 11:18:53;;;;;;;9.10;1.90;;;;;;;18.33;52.76;100509.25;106410;1282;61452;-71
2022/10/18 11:21:40;;;;;;;12.10;2.10;;;;;;;18.15;53.36;100511.36;106659;1280;72157;-72
2022/10/18 11:24:27;;;;;;;7.50;2.20;;;;;;;18.00;53.68;100507.29;106681;1281;67667;-72
2022/10/18 11:27:24;;;;;;;8.10;1.80;;;;;;;17.79;54.38;100491.25;106676;1284;71635;-72
2022/10/18 11:30:38;;;;;;;7.50;1.70;;;;;;;17.57;54.55;100490.79;106663;1281;58317;-72
2022/10/18 11:33:49;;;;;;;8.70;2.10;;;;;;;17.32;55.64;100486.23;106672;1281;59062;-72
2022/10/18 11:37:22;;;;;;;7.70;2.10;;;;;;;17.04;56.18;100490.48;106660;1274;70457;-71
2022/10/18 11:40:52;;;;;;;11.50;2.30;;;;;;;16.80;56.85;100496.48;106660;1282;68720;-72
2022/10/18 11:43:59;;;;;;;9.10;1.90;;;;;;;16.64;57.85;100497.17;106635;1280;72893;-72
2022/10/18 11:47:18;;;;;;;7.60;1.80;;;;;;;16.49;58.52;100499.64;106526;1282;56804;-72
2022/10/18 11:50:26;;;;;;;9.90;2.20;;;;;;;16.35;59.58;100501.19;106642;1288;60171;-72
2022/10/18 11:53:24;;;;;;;15.80;2.30;;;;;;;16.22;60.15;100503.86;106666;1282;72090;-73
2022/10/18 11:56:31;;;;;;;8.90;2.00;;;;;;;16.13;60.98;100501.95;106684;1288;67765;-72
2022/10/18 11:59:37;;;;;;;8.40;1.90;;;;;;;16.00;61.83;100495.90;106675;1282;73783;-71
2022/10/18 12:03:03;;;;;;;9.40;1.90;;;;;;;15.82;62.62;100490.73;106632;1277;58186;-72
2022/10/18 12:05:52;;;;;;;10.50;2.10;;;;;;;15.68;63.43;100486.08;106681;1274;60048;-72
2022/10/18 12:08:47;;;;;;;9.70;2.10;;;;;;;15.56;64.09;100478.98;106499;1281;71725;-72
2022/10/18 12:11:43;;;;;;;10.20;2.30;;;;;;;15.48;64.68;100475.61;106643;1283;68363;-71
2022/10/18 12:14:44;;;;;;;7.60;2.00;;;;;;;15.39;65.19;100464.66;106512;1280;72376;-71
2022/10/18 12:17:37;;;;;;;9.70;2.00;;;;;;;15.27;65.57;100456.56;106497;1283;57766;-72
2022/10/18 12:20:45;;;;;;;10.70;1.80;;;;;;;15.18;66.08;100456.02;106663;1289;60562;-73
2022/10/18 12:23:58;;;;;;;10.80;2.50;;;;;;;15.11;66.67;100456.97;106479;1282;71853;-71
2022/10/18 12:26:49;;;;;;;12.00;2.30;;;;;;;15.04;67.21;100452.41;106642;1282;66308;-72
2022/10/18 12:29:49;;;;;;;14.40;2.40;;;;;;;14.99;67.42;100446.97;106473;1287;73595;-73
2022/10/18 12:32:37;;;;;;;10.80;2.50;;;;;;;14.94;67.78;100441.70;106385;1286;58907;-72
2022/10/18 12:35:33;;;;;;;9.60;2.20;;;;;;;14.89;67.79;100440.91;106463;1282;60089;-71
2022/10/18 12:38:35;;;;;;;9.10;2.10;;;;;;;14.82;67.87;100437.77;106471;1283;73520;-72
2022/10/18 12:41:34;;;;;;;18.70;2.70;;;;;;;14.71;67.84;100432.73;106464;1280;67672;-73
2022/10/18 12:44:33;;;;;;;10.10;2.10;;;;;;;14.67;67.84;100435.36;106629;1282;70023;-71
2022/10/18 12:47:24;;;;;;;10.20;2.50;;;;;;;14.65;68.21;100433.95;106606;1281;57197;-72
2022/10/18 12:50:28;;;;;;;11.30;2.50;;;;;;;14.62;68.06;100434.48;106475;1285;60089;-72
2022/10/18 12:53:25;;;;;;;10.40;2.60;;;;;;;14.61;68.49;100438.52;106482;1281;72371;-71
2022/10/18 12:56:26;;;;;;;11.20;2.40;;;;;;;14.56;68.35;100439.10;106482;1280;67923;-72
2022/10/18 12:59:13;;;;;;;7.90;2.30;;;;;;;14.55;68.79;100433.49;106660;1284;72178;-72
2022/10/18 13:01:59;;;;;;;8.50;1.90;;;;;;;14.54;69.19;100435.92;106647;1287;59657;-72
2022/10/18 13:04:47;;;;;;;10.70;2.60;;;;;;;14.53;69.63;100425.50;106646;1280;58970;-72
2022/10/18 13:07:39;;;;;;;11.90;2.90;;;;;;;14.54;69.57;100423.48;106469;1289;73195;-74
2022/10/18 13:10:34;;;;;;;10.80;3.00;;;;;;;14.52;70.32;100423.92;106492;1281;68656;-76
2022/10/18 13:13:37;;;;;;;12.80;2.90;;;;;;;14.50;70.25;100422.88;106634;1280;72382;-76